Time;durP1;ratioP1;P1;durP2;ratioP2;P2;SDS_P1;SDS_P2;PMS_P1;PMS_P2;Temp;Humidity;BMP_temperature;BMP_pressure;BME280_temperature;BME280_humidity;BME280_pressure;Samples;Min_cycle;Max_cycle;Signal;HPM_P1;HPM_P2
2021/05/16 00:00:16;;;;;;;5.90;5.50;;;10.50;99.90;;;;;;5075914;28;20186;-78
2021/05/16 00:02:43;;;;;;;6.00;5.50;;;10.40;99.90;;;;;;5075563;28;20325;-78
2021/05/16 00:05:12;;;;;;;5.80;5.40;;;10.50;99.90;;;;;;5068408;28;20190;-78
2021/05/16 00:07:40;;;;;;;5.40;5.10;;;10.50;99.90;;;;;;5077023;28;20203;-78
2021/05/16 00:10:08;;;;;;;5.60;5.20;;;10.50;99.90;;;;;;5075913;28;20237;-78
2021/05/16 00:12:36;;;;;;;6.10;5.70;;;10.60;99.90;;;;;;5076063;28;20227;-78
2021/05/16 00:15:04;;;;;;;5.90;5.50;;;10.50;99.90;;;;;;5077454;28;20659;-79
2021/05/16 00:17:30;;;;;;;5.90;5.50;;;10.50;99.90;;;;;;5077439;28;20273;-78
2021/05/16 00:19:56;;;;;;;5.80;5.40;;;10.50;99.90;;;;;;5077334;28;20199;-78
2021/05/16 00:22:24;;;;;;;6.27;5.87;;;10.50;99.90;;;;;;5076866;28;20714;-78
2021/05/16 00:24:50;;;;;;;6.00;5.60;;;10.50;99.90;;;;;;5075673;28;20198;-78
2021/05/16 00:27:16;;;;;;;6.07;5.67;;;10.50;99.90;;;;;;5076970;28;20202;-79
2021/05/16 00:29:43;;;;;;;5.80;5.40;;;10.50;99.90;;;;;;5075810;28;20210;-79
2021/05/16 00:32:09;;;;;;;6.13;5.73;;;10.40;99.90;;;;;;5067570;28;20260;-78
2021/05/16 00:34:35;;;;;;;6.20;5.60;;;10.40;99.90;;;;;;5076494;28;20198;-79
2021/05/16 00:37:02;;;;;;;6.13;5.40;;;10.50;99.90;;;;;;5076369;28;20190;-79
2021/05/16 00:39:29;;;;;;;5.80;5.30;;;10.50;99.90;;;;;;5075730;28;20686;-78
2021/05/16 00:41:55;;;;;;;5.87;5.17;;;10.50;99.90;;;;;;5075142;28;20222;-79
2021/05/16 00:44:23;;;;;;;5.50;5.20;;;10.50;99.90;;;;;;5074059;28;20210;-79
2021/05/16 00:46:50;;;;;;;5.83;5.33;;;10.50;99.90;;;;;;5075698;28;20233;-79
2021/05/16 00:49:16;;;;;;;5.20;4.90;;;10.50;99.90;;;;;;5074949;28;20645;-79
2021/05/16 00:51:43;;;;;;;5.70;5.30;;;10.50;99.90;;;;;;5073316;28;20245;-79
2021/05/16 00:54:10;;;;;;;6.33;5.50;;;10.50;99.90;;;;;;5073705;28;20675;-78
2021/05/16 00:56:38;;;;;;;5.47;5.10;;;10.50;99.90;;;;;;5074650;28;20219;-79
2021/05/16 00:59:05;;;;;;;6.00;5.43;;;10.50;99.90;;;;;;5075970;28;20198;-79
2021/05/16 01:01:32;;;;;;;6.33;5.40;;;10.50;99.90;;;;;;5058677;28;20221;-79
2021/05/16 01:04:00;;;;;;;6.57;6.00;;;10.50;99.90;;;;;;5076303;28;20198;-79
2021/05/16 01:06:27;;;;;;;6.10;5.50;;;10.50;99.90;;;;;;5074593;28;20275;-79
2021/05/16 01:08:57;;;;;;;5.80;5.27;;;10.50;99.90;;;;;;5074577;28;20610;-79
2021/05/16 01:11:28;;;;;;;6.03;5.50;;;10.50;99.90;;;;;;5074789;28;20309;-79
2021/05/16 01:13:56;;;;;;;5.70;5.30;;;10.50;99.90;;;;;;5074571;28;20202;-79
2021/05/16 01:16:22;;;;;;;5.70;5.20;;;10.50;99.90;;;;;;5074730;28;20232;-79
2021/05/16 01:18:49;;;;;;;5.83;5.43;;;10.50;99.90;;;;;;5057242;28;20203;-79
2021/05/16 01:21:17;;;;;;;6.23;5.63;;;10.60;99.90;;;;;;5071844;28;20222;-79
2021/05/16 01:23:47;;;;;;;5.77;5.43;;;10.50;99.90;;;;;;5074290;28;20281;-79
2021/05/16 01:26:22;;;;;;;5.77;5.47;;;10.50;99.90;;;;;;5054499;28;20213;-79
2021/05/16 01:28:50;;;;;;;5.90;5.50;;;10.50;99.90;;;;;;5058228;28;20701;-79
2021/05/16 01:31:16;;;;;;;6.37;5.77;;;10.50;99.90;;;;;;5075673;28;20213;-79
2021/05/16 01:33:42;;;;;;;6.00;5.50;;;10.50;99.90;;;;;;5057754;28;20251;-79
2021/05/16 01:36:09;;;;;;;5.80;5.40;;;10.50;99.90;;;;;;5068337;28;20255;-79
2021/05/16 01:38:36;;;;;;;5.87;5.47;;;10.50;99.90;;;;;;5057892;28;20199;-79
2021/05/16 01:41:03;;;;;;;6.00;5.60;;;10.60;99.90;;;;;;5057116;28;20601;-79
2021/05/16 01:43:37;;;;;;;6.50;5.87;;;10.60;99.90;;;;;;5073561;28;20642;-79
2021/05/16 01:46:04;;;;;;;6.07;5.67;;;10.60;99.90;;;;;;5075195;28;20802;-79
2021/05/16 01:48:31;;;;;;;6.20;5.80;;;10.60;99.90;;;;;;5073817;28;20218;-79
2021/05/16 01:50:57;;;;;;;6.10;5.70;;;10.60;99.90;;;;;;5058577;28;20211;-79
2021/05/16 01:53:27;;;;;;;6.27;5.67;;;10.60;99.90;;;;;;5072953;28;20186;-79
2021/05/16 01:55:54;;;;;;;6.00;5.53;;;10.60;99.90;;;;;;5074507;28;20187;-78
2021/05/16 01:58:21;;;;;;;6.23;5.77;;;10.60;99.90;;;;;;5073315;28;20187;-79
2021/05/16 02:00:49;;;;;;;6.23;5.63;;;10.60;99.90;;;;;;5073468;28;20245;-79
2021/05/16 02:03:29;;;;;;;6.17;5.77;;;10.70;99.90;;;;;;5073446;28;20263;-79
2021/05/16 02:05:57;;;;;;;6.40;5.90;;;10.70;99.90;;;;;;5056691;28;20289;-78
2021/05/16 02:08:24;;;;;;;6.00;5.60;;;10.70;99.90;;;;;;5069658;28;20312;-79
2021/05/16 02:10:51;;;;;;;6.23;5.70;;;10.70;99.90;;;;;;5055503;28;20237;-79
2021/05/16 02:13:18;;;;;;;6.07;5.67;;;10.60;99.90;;;;;;5055152;28;20601;-79
2021/05/16 02:15:55;;;;;;;6.20;5.80;;;10.70;99.90;;;;;;5071549;28;20202;-79
2021/05/16 02:18:25;;;;;;;6.50;6.00;;;10.60;99.90;;;;;;5074840;28;20191;-79
2021/05/16 02:20:52;;;;;;;6.40;5.90;;;10.60;99.90;;;;;;5093256;22;20599;-78
2021/05/16 02:23:18;;;;;;;6.30;5.80;;;10.60;99.90;;;;;;5110177;28;20212;-78
2021/05/16 02:25:49;;;;;;;6.03;5.60;;;10.60;99.90;;;;;;5107913;28;20192;-77
2021/05/16 02:28:21;;;;;;;5.97;5.53;;;10.50;99.90;;;;;;5108311;28;20678;-78
2021/05/16 02:30:51;;;;;;;6.50;6.00;;;10.50;99.90;;;;;;5085428;28;20662;-77
2021/05/16 02:33:18;;;;;;;6.07;5.73;;;10.50;99.90;;;;;;5081989;28;20197;-77
2021/05/16 02:35:45;;;;;;;6.00;5.53;;;10.50;99.90;;;;;;5081898;28;20666;-77
2021/05/16 02:38:11;;;;;;;6.60;5.90;;;10.50;99.90;;;;;;5100602;28;20745;-76
2021/05/16 02:40:38;;;;;;;6.20;5.70;;;10.50;99.90;;;;;;5066709;28;20211;-77
2021/05/16 02:43:05;;;;;;;6.27;5.77;;;10.50;99.90;;;;;;5085036;28;20244;-75
2021/05/16 02:45:33;;;;;;;6.20;5.70;;;10.60;99.90;;;;;;5078996;28;20658;-76
2021/05/16 02:48:05;;;;;;;5.97;5.60;;;10.50;99.90;;;;;;5068821;28;20206;-75
2021/05/16 02:50:34;;;;;;;6.00;5.70;;;10.50;99.90;;;;;;5091881;28;20194;-76
2021/05/16 02:53:03;;;;;;;5.67;5.37;;;10.50;99.90;;;;;;5083864;28;20699;-76
2021/05/16 02:55:34;;;;;;;6.00;5.60;;;10.50;99.90;;;;;;5077767;28;20198;-75
2021/05/16 02:58:02;;;;;;;5.77;5.40;;;10.50;99.90;;;;;;5047832;28;20202;-76
2021/05/16 03:00:35;;;;;;;6.10;5.80;;;10.50;99.90;;;;;;5079187;28;20190;-76
2021/05/16 03:03:01;;;;;;;6.60;6.00;;;10.60;99.90;;;;;;5061587;28;20218;-75
2021/05/16 03:05:30;;;;;;;6.57;6.07;;;10.50;99.90;;;;;;5062690;28;20212;-76
2021/05/16 03:07:57;;;;;;;6.20;5.80;;;10.50;99.90;;;;;;5073434;28;20205;-75
2021/05/16 03:10:24;;;;;;;6.10;5.70;;;10.50;99.90;;;;;;5075097;28;20304;-75
2021/05/16 03:12:50;;;;;;;6.10;5.70;;;10.50;99.90;;;;;;5056898;28;20222;-75
2021/05/16 03:15:19;;;;;;;6.80;6.20;;;10.50;99.90;;;;;;5074972;28;20189;-75
2021/05/16 03:17:46;;;;;;;6.00;5.60;;;10.40;99.90;;;;;;5073379;28;20256;-75
2021/05/16 03:20:14;;;;;;;6.37;5.77;;;10.40;99.90;;;;;;5095710;28;20215;-75
2021/05/16 03:22:41;;;;;;;6.30;5.90;;;10.40;99.90;;;;;;5059856;28;20602;-75
2021/05/16 03:25:11;;;;;;;6.43;5.93;;;10.40;99.90;;;;;;5095024;28;20193;-75
2021/05/16 03:27:38;;;;;;;5.90;5.40;;;10.40;99.90;;;;;;5073030;28;20209;-75
2021/05/16 03:30:06;;;;;;;6.37;5.77;;;10.30;99.90;;;;;;5092040;28;20213;-75
2021/05/16 03:32:32;;;;;;;6.67;6.07;;;10.30;99.90;;;;;;5070571;28;20218;-75
2021/05/16 03:35:00;;;;;;;6.83;6.30;;;10.30;99.90;;;;;;5077813;28;20198;-75
2021/05/16 03:37:26;;;;;;;7.20;6.63;;;10.20;99.90;;;;;;5091560;28;20730;-75
2021/05/16 03:39:52;;;;;;;7.00;6.50;;;10.20;99.90;;;;;;5097202;28;20190;-75
2021/05/16 03:42:19;;;;;;;6.80;6.20;;;10.10;99.90;;;;;;5093851;28;20278;-75
2021/05/16 03:44:45;;;;;;;7.27;6.57;;;10.20;99.90;;;;;;5098230;28;20273;-75
2021/05/16 03:47:11;;;;;;;7.80;7.30;;;10.20;99.90;;;;;;5097547;28;20197;-75
2021/05/16 03:49:38;;;;;;;6.77;6.23;;;10.30;99.90;;;;;;5078215;28;20271;-75
2021/05/16 03:52:07;;;;;;;6.67;6.20;;;10.30;99.90;;;;;;5084427;28;20311;-75
2021/05/16 03:54:33;;;;;;;6.87;6.40;;;10.30;99.90;;;;;;5091141;28;20197;-75
2021/05/16 03:57:00;;;;;;;6.87;6.27;;;10.30;99.90;;;;;;5092527;28;20190;-78
2021/05/16 03:59:26;;;;;;;7.30;6.80;;;10.40;99.90;;;;;;5083440;28;20621;-79
2021/05/16 04:01:52;;;;;;;7.10;6.60;;;10.40;99.90;;;;;;5096204;28;20217;-77
2021/05/16 04:04:19;;;;;;;6.80;6.40;;;10.50;99.90;;;;;;5105513;28;20205;-78
2021/05/16 04:06:45;;;;;;;7.07;6.60;;;10.50;99.90;;;;;;5096165;28;20631;-78
2021/05/16 04:09:12;;;;;;;6.97;6.47;;;10.50;99.90;;;;;;5087177;28;20210;-77
2021/05/16 04:11:39;;;;;;;6.27;5.87;;;10.50;99.90;;;;;;5088187;28;20222;-78
2021/05/16 04:14:05;;;;;;;6.50;6.10;;;10.50;99.90;;;;;;5088286;28;20193;-78
2021/05/16 04:16:32;;;;;;;6.73;6.33;;;10.50;99.90;;;;;;5086809;28;20205;-79
2021/05/16 04:18:58;;;;;;;6.37;6.07;;;10.60;99.90;;;;;;5099275;28;20197;-78
2021/05/16 04:21:25;;;;;;;6.53;6.13;;;10.60;99.90;;;;;;5090385;28;20244;-79
2021/05/16 04:23:51;;;;;;;7.10;6.60;;;10.70;99.90;;;;;;5078914;28;20229;-79
2021/05/16 04:26:19;;;;;;;6.60;6.20;;;10.70;99.90;;;;;;5106111;28;20189;-79
2021/05/16 04:28:45;;;;;;;6.20;5.90;;;10.70;99.90;;;;;;5069458;28;20279;-78
2021/05/16 04:31:11;;;;;;;6.30;6.00;;;10.80;99.90;;;;;;5089490;28;20328;-77
2021/05/16 04:33:38;;;;;;;6.20;5.90;;;10.80;99.90;;;;;;5105211;28;20264;-79
2021/05/16 04:36:04;;;;;;;6.40;6.00;;;10.80;99.90;;;;;;5102579;28;20197;-78
2021/05/16 04:38:31;;;;;;;6.40;6.00;;;10.70;99.90;;;;;;5103576;28;20255;-78
2021/05/16 04:40:57;;;;;;;6.17;5.80;;;10.80;99.90;;;;;;5091707;28;20557;-78
2021/05/16 04:43:24;;;;;;;6.47;6.00;;;10.80;99.90;;;;;;5086468;28;20213;-78
2021/05/16 04:45:51;;;;;;;6.50;6.10;;;10.90;99.90;;;;;;5086173;28;20213;-78
2021/05/16 04:48:17;;;;;;;6.40;6.10;;;10.90;99.90;;;;;;5084832;28;20601;-78
2021/05/16 04:50:43;;;;;;;6.40;6.00;;;11.00;99.90;;;;;;5082899;28;20198;-78
2021/05/16 04:53:10;;;;;;;6.37;6.07;;;11.10;99.90;;;;;;5088214;28;20199;-78
2021/05/16 04:55:36;;;;;;;6.53;6.13;;;11.20;99.90;;;;;;5082977;28;20254;-78
2021/05/16 04:58:03;;;;;;;6.30;5.80;;;11.30;99.90;;;;;;5094888;28;20198;-78
2021/05/16 05:00:30;;;;;;;6.60;6.20;;;11.40;99.90;;;;;;5103641;28;20194;-79
2021/05/16 05:02:58;;;;;;;6.10;5.70;;;11.40;99.90;;;;;;5088413;28;20785;-80
2021/05/16 05:05:24;;;;;;;5.50;5.20;;;11.30;99.90;;;;;;5092682;28;20250;-79
2021/05/16 05:07:50;;;;;;;6.10;5.70;;;11.30;99.90;;;;;;5078560;28;20206;-76
2021/05/16 05:10:19;;;;;;;5.10;4.90;;;11.30;99.90;;;;;;5105539;28;20746;-78
2021/05/16 05:12:45;;;;;;;5.30;5.00;;;11.30;99.90;;;;;;5084074;28;20225;-79
2021/05/16 05:15:12;;;;;;;4.90;4.70;;;11.30;99.90;;;;;;5110482;28;20189;-79
2021/05/16 05:17:40;;;;;;;4.57;4.27;;;11.50;99.90;;;;;;5091510;28;20206;-77
2021/05/16 05:20:08;;;;;;;4.70;4.50;;;11.70;99.90;;;;;;5080659;28;20200;-77
2021/05/16 05:22:35;;;;;;;6.27;5.87;;;11.80;99.90;;;;;;5079907;28;20240;-77
2021/05/16 05:25:01;;;;;;;6.27;5.87;;;11.80;99.90;;;;;;5102029;28;20194;-77
2021/05/16 05:27:27;;;;;;;6.43;6.03;;;11.80;99.90;;;;;;5090076;28;20194;-77
2021/05/16 05:29:54;;;;;;;6.50;6.10;;;11.80;99.90;;;;;;5079528;28;20221;-78
2021/05/16 05:32:20;;;;;;;6.87;6.17;;;11.80;99.90;;;;;;5099926;28;20252;-78
2021/05/16 05:34:48;;;;;;;6.40;6.00;;;11.80;99.90;;;;;;5086214;28;20198;-77
2021/05/16 05:37:14;;;;;;;6.80;6.30;;;11.80;99.90;;;;;;5104784;28;20193;-76
2021/05/16 05:39:40;;;;;;;6.50;6.00;;;11.80;99.90;;;;;;5087755;28;20202;-78
2021/05/16 05:42:07;;;;;;;6.23;5.83;;;11.70;99.90;;;;;;5087317;28;20216;-78
2021/05/16 05:44:35;;;;;;;6.17;5.80;;;11.70;99.90;;;;;;5083926;28;20205;-77
2021/05/16 05:47:01;;;;;;;6.40;6.00;;;11.80;99.90;;;;;;5105638;28;20194;-78
2021/05/16 05:49:27;;;;;;;6.30;5.90;;;11.80;99.90;;;;;;5102466;28;20669;-75
2021/05/16 05:51:54;;;;;;;6.20;5.90;;;11.80;99.90;;;;;;5093861;28;20233;-77
2021/05/16 05:54:21;;;;;;;6.10;5.80;;;12.10;99.90;;;;;;5093820;28;20193;-80
2021/05/16 05:56:47;;;;;;;6.20;5.80;;;12.30;99.90;;;;;;5071580;28;20255;-77
2021/05/16 05:59:14;;;;;;;6.20;5.90;;;12.60;99.90;;;;;;5083530;28;20189;-77
2021/05/16 06:01:40;;;;;;;6.00;5.60;;;12.80;99.90;;;;;;5082742;28;20231;-77
2021/05/16 06:04:06;;;;;;;5.93;5.63;;;12.90;99.90;;;;;;5097808;28;20529;-78
2021/05/16 06:06:33;;;;;;;6.07;5.70;;;12.90;99.90;;;;;;5090776;28;20203;-77
2021/05/16 06:09:00;;;;;;;5.90;5.50;;;13.00;99.90;;;;;;5094086;28;20588;-78
2021/05/16 06:11:26;;;;;;;5.90;5.50;;;13.00;99.90;;;;;;5090887;28;20216;-78
2021/05/16 06:13:52;;;;;;;6.00;5.70;;;13.20;99.90;;;;;;5084163;28;20203;-74
2021/05/16 06:16:19;;;;;;;5.27;5.07;;;13.50;99.90;;;;;;5098848;28;20729;-77
2021/05/16 06:18:45;;;;;;;5.90;5.60;;;13.90;99.90;;;;;;5073291;28;20257;-77
2021/05/16 06:21:11;;;;;;;6.10;5.70;;;14.10;99.90;;;;;;5085304;28;20259;-79
2021/05/16 06:23:46;;;;;;;5.53;5.23;;;14.40;99.90;;;;;;5069434;28;20212;-78
2021/05/16 06:26:13;;;;;;;5.73;5.40;;;14.60;99.90;;;;;;5091100;28;20631;-78
2021/05/16 06:28:39;;;;;;;4.33;4.13;;;14.60;99.90;;;;;;5088396;28;20827;-77
2021/05/16 06:31:05;;;;;;;3.13;2.93;;;14.40;99.90;;;;;;5101030;28;20220;-78
2021/05/16 06:33:32;;;;;;;3.20;3.00;;;14.10;99.90;;;;;;5101027;28;20204;-78
2021/05/16 06:35:58;;;;;;;4.90;4.60;;;13.90;99.90;;;;;;5094513;28;20198;-78
2021/05/16 06:38:25;;;;;;;4.67;4.30;;;13.80;99.90;;;;;;5103251;28;20204;-78
2021/05/16 06:40:51;;;;;;;4.30;4.00;;;13.70;99.90;;;;;;5100167;28;20197;-80
2021/05/16 06:43:18;;;;;;;4.20;3.90;;;13.80;99.90;;;;;;5070318;28;20200;-79
2021/05/16 06:45:45;;;;;;;4.00;3.80;;;13.90;99.90;;;;;;5103680;28;20686;-78
2021/05/16 06:48:11;;;;;;;4.13;3.83;;;14.10;99.90;;;;;;5099435;28;20189;-77
2021/05/16 06:50:37;;;;;;;3.97;3.77;;;14.30;99.90;;;;;;5084341;28;20227;-79
2021/05/16 06:53:04;;;;;;;4.10;3.90;;;14.40;99.90;;;;;;5080213;28;20229;-79
2021/05/16 06:55:30;;;;;;;4.40;4.10;;;14.40;99.90;;;;;;5108833;28;20211;-78
2021/05/16 06:57:56;;;;;;;4.30;4.00;;;14.50;99.90;;;;;;5095697;28;20210;-81
2021/05/16 07:00:23;;;;;;;4.20;4.00;;;14.50;99.90;;;;;;5095761;28;20193;-78
2021/05/16 07:02:50;;;;;;;4.67;4.37;;;14.70;99.90;;;;;;5098568;28;20279;-78
2021/05/16 07:05:16;;;;;;;4.90;4.60;;;14.80;99.90;;;;;;5093805;28;20240;-79
2021/05/16 07:07:42;;;;;;;5.60;5.30;;;14.90;99.90;;;;;;5077522;28;20208;-77
2021/05/16 07:10:09;;;;;;;5.50;5.20;;;15.00;99.90;;;;;;5085950;28;20217;-77
2021/05/16 07:12:35;;;;;;;5.60;5.20;;;15.00;99.90;;;;;;5103202;28;20611;-76
2021/05/16 07:15:02;;;;;;;5.90;5.60;;;15.10;99.90;;;;;;5064763;28;20197;-77
2021/05/16 07:17:30;;;;;;;5.80;5.40;;;15.00;99.90;;;;;;5100247;28;20234;-76
2021/05/16 07:19:56;;;;;;;5.17;4.87;;;15.10;99.90;;;;;;5084119;28;20192;-76
2021/05/16 07:22:22;;;;;;;5.03;4.63;;;15.60;99.90;;;;;;5096584;28;20242;-76
2021/05/16 07:24:49;;;;;;;4.70;4.30;;;16.40;99.90;;;;;;5102590;28;20574;-77
2021/05/16 07:27:15;;;;;;;3.50;3.20;;;16.60;99.90;;;;;;5076940;28;20201;-76
2021/05/16 07:29:41;;;;;;;3.17;2.93;;;16.50;99.90;;;;;;5081275;28;20213;-76
2021/05/16 07:32:08;;;;;;;3.57;3.27;;;16.50;99.90;;;;;;5098334;28;20650;-76
2021/05/16 07:34:35;;;;;;;3.00;2.80;;;16.60;99.90;;;;;;5084567;28;20292;-76
2021/05/16 07:37:01;;;;;;;4.53;3.70;;;16.80;99.90;;;;;;5085967;28;20201;-76
2021/05/16 07:39:28;;;;;;;4.13;3.83;;;17.30;99.90;;;;;;5105448;28;20190;-77
2021/05/16 07:41:54;;;;;;;5.53;5.13;;;17.90;99.90;;;;;;5104955;28;20224;-76
2021/05/16 07:44:20;;;;;;;5.90;5.40;;;18.50;99.90;;;;;;5084982;28;20254;-77
2021/05/16 07:46:46;;;;;;;5.43;4.27;;;19.00;99.90;;;;;;5079520;28;20339;-76
2021/05/16 07:49:13;;;;;;;4.60;4.30;;;19.30;99.90;;;;;;5086189;28;20693;-77
2021/05/16 07:51:41;;;;;;;5.13;4.60;;;19.50;99.90;;;;;;5083156;28;20226;-77
2021/05/16 07:54:08;;;;;;;5.80;5.40;;;20.00;99.90;;;;;;5109982;28;20195;-78
2021/05/16 07:56:34;;;;;;;5.80;5.30;;;20.20;99.90;;;;;;5075245;28;20210;-77
2021/05/16 07:59:00;;;;;;;6.70;5.80;;;20.10;99.90;;;;;;5098739;28;20207;-79
2021/05/16 08:01:27;;;;;;;6.50;5.90;;;19.90;99.90;;;;;;5099995;28;20222;-80
2021/05/16 08:03:53;;;;;;;6.27;5.77;;;19.60;99.90;;;;;;5095410;28;20206;-80
2021/05/16 08:06:19;;;;;;;7.50;5.80;;;19.50;99.90;;;;;;5071775;28;20236;-77
2021/05/16 08:08:46;;;;;;;6.53;6.00;;;19.10;99.90;;;;;;5088552;28;20191;-75
2021/05/16 08:11:13;;;;;;;6.43;5.83;;;18.50;99.90;;;;;;5083748;28;20229;-77
2021/05/16 08:13:39;;;;;;;6.83;6.13;;;18.00;99.90;;;;;;5094172;28;20213;-77
2021/05/16 08:16:06;;;;;;;7.27;6.30;;;17.60;99.90;;;;;;5080763;28;20209;-79
2021/05/16 08:18:32;;;;;;;8.87;6.27;;;17.30;99.90;;;;;;5086036;28;20202;-79
2021/05/16 08:20:58;;;;;;;6.30;5.50;;;17.00;99.90;;;;;;5116446;28;20295;-79
2021/05/16 08:23:25;;;;;;;9.20;6.07;;;16.70;99.90;;;;;;5090704;22;20259;-76
2021/05/16 08:25:52;;;;;;;6.47;5.87;;;16.60;99.90;;;;;;5068803;28;20220;-77
2021/05/16 08:28:20;;;;;;;7.63;6.00;;;16.50;99.90;;;;;;5073779;28;20245;-77
2021/05/16 08:30:47;;;;;;;6.30;5.70;;;16.70;99.90;;;;;;5063600;28;20228;-77
2021/05/16 08:33:13;;;;;;;8.27;6.40;;;16.50;99.90;;;;;;5082612;28;20592;-77
2021/05/16 08:35:39;;;;;;;6.70;6.10;;;16.40;99.90;;;;;;5086415;28;20627;-77
2021/05/16 08:38:06;;;;;;;6.30;5.80;;;16.30;99.90;;;;;;5086660;28;20200;-77
2021/05/16 08:40:32;;;;;;;6.60;6.00;;;17.10;99.90;;;;;;5090663;28;20197;-77
2021/05/16 08:43:01;;;;;;;7.23;6.43;;;17.90;99.90;;;;;;5088988;28;20703;-77
2021/05/16 08:45:28;;;;;;;6.97;6.30;;;18.60;99.90;;;;;;5080074;28;20208;-76
2021/05/16 08:47:56;;;;;;;7.17;6.50;;;19.30;99.90;;;;;;5079787;28;20197;-76
2021/05/16 08:50:23;;;;;;;6.63;6.13;;;19.80;99.90;;;;;;5087133;28;20238;-77
2021/05/16 08:52:49;;;;;;;6.70;6.20;;;20.30;99.90;;;;;;5099231;28;20233;-77
2021/05/16 08:55:16;;;;;;;8.17;6.50;;;20.60;99.90;;;;;;5095024;28;20596;-78
2021/05/16 08:57:44;;;;;;;7.17;6.47;;;21.00;99.90;;;;;;5083785;28;20203;-78
2021/05/16 09:00:15;;;;;;;6.73;6.13;;;21.30;99.90;;;;;;5089819;28;20203;-77
2021/05/16 09:03:07;;;;;;;6.47;5.97;;;21.50;99.90;;;;;;5088758;28;20223;-82
2021/05/16 09:05:37;;;;;;;6.67;5.97;;;21.80;99.90;;;;;;5073660;28;20215;-78
2021/05/16 09:08:06;;;;;;;6.50;5.90;;;22.10;99.90;;;;;;5086693;28;20250;-77
2021/05/16 09:10:33;;;;;;;5.87;5.33;;;22.20;99.90;;;;;;5089143;28;20220;-76
2021/05/16 09:13:16;;;;;;;6.87;5.77;;;22.20;99.90;;;;;;5082485;28;20225;-76
2021/05/16 09:15:44;;;;;;;6.87;6.37;;;22.50;99.90;;;;;;5084197;28;20285;-76
2021/05/16 09:18:10;;;;;;;6.80;6.20;;;23.00;99.90;;;;;;5083673;28;20206;-76
2021/05/16 09:20:37;;;;;;;9.17;8.40;;;22.70;98.90;;;;;;5090532;28;20191;-76
2021/05/16 09:23:03;;;;;;;7.57;6.63;;;22.50;97.20;;;;;;5094766;28;20234;-76
2021/05/16 09:25:31;;;;;;;7.73;7.13;;;22.10;97.70;;;;;;5095015;28;20206;-76
2021/05/16 09:28:12;;;;;;;6.87;6.30;;;22.60;97.70;;;;;;5079091;28;20198;-76
2021/05/16 09:30:40;;;;;;;6.77;6.13;;;22.30;95.30;;;;;;5097031;28;20229;-76
2021/05/16 09:33:09;;;;;;;6.50;5.90;;;21.80;95.30;;;;;;5090787;28;20221;-76
2021/05/16 09:35:38;;;;;;;7.00;6.37;;;21.50;96.50;;;;;;5083518;28;20228;-76
2021/05/16 09:38:11;;;;;;;7.23;6.57;;;21.10;96.90;;;;;;5084550;28;20243;-76
2021/05/16 09:40:41;;;;;;;7.23;6.60;;;20.60;97.10;;;;;;5085114;28;20195;-76
2021/05/16 09:43:13;;;;;;;6.40;5.90;;;20.40;96.80;;;;;;5089371;28;20210;-76
2021/05/16 09:45:46;;;;;;;7.07;5.80;;;20.30;99.00;;;;;;5084883;28;20259;-76
2021/05/16 09:48:31;;;;;;;6.30;5.80;;;19.90;98.20;;;;;;5082413;28;20199;-76
2021/05/16 09:51:16;;;;;;;7.00;6.23;;;19.40;98.90;;;;;;5085045;28;20585;-76
2021/05/16 09:53:56;;;;;;;7.07;6.30;;;19.90;99.90;;;;;;5086205;28;20280;-76
2021/05/16 09:56:25;;;;;;;6.67;5.93;;;20.40;98.90;;;;;;5077979;28;20211;-76
2021/05/16 09:58:53;;;;;;;5.97;5.57;;;20.80;97.90;;;;;;5089580;28;20211;-76
2021/05/16 10:01:21;;;;;;;6.60;5.90;;;21.00;97.30;;;;;;5097411;28;20205;-76
2021/05/16 10:03:49;;;;;;;6.10;5.53;;;20.70;96.70;;;;;;5089143;28;20193;-76
2021/05/16 10:06:17;;;;;;;6.03;5.50;;;20.30;97.40;;;;;;5084118;28;20211;-76
2021/05/16 10:08:47;;;;;;;5.83;5.40;;;20.40;98.40;;;;;;5091928;28;20198;-76
2021/05/16 10:11:14;;;;;;;5.77;5.37;;;20.90;99.00;;;;;;5085501;28;20565;-76
2021/05/16 10:13:43;;;;;;;6.23;5.70;;;21.30;98.50;;;;;;5088168;28;20221;-76
2021/05/16 10:16:14;;;;;;;6.43;5.93;;;21.50;97.90;;;;;;5097485;28;20190;-76
2021/05/16 10:18:40;;;;;;;6.53;6.03;;;21.70;97.70;;;;;;5083748;28;20205;-76
2021/05/16 10:21:08;;;;;;;5.63;5.17;;;21.80;95.60;;;;;;5084684;28;20189;-76
2021/05/16 10:23:36;;;;;;;5.73;5.23;;;21.70;96.00;;;;;;5087451;28;20222;-76
2021/05/16 10:26:20;;;;;;;6.10;5.30;;;21.80;95.30;;;;;;5092192;28;20203;-76
2021/05/16 10:28:58;;;;;;;5.80;5.30;;;21.90;95.60;;;;;;5101356;28;20295;-76
2021/05/16 10:31:49;;;;;;;5.93;5.20;;;21.70;95.50;;;;;;5097576;28;20256;-76
2021/05/16 10:34:44;;;;;;;5.60;5.10;;;21.60;95.30;;;;;;5077741;28;20655;-76
2021/05/16 10:37:28;;;;;;;7.37;5.77;;;21.50;94.00;;;;;;5090488;28;20224;-76
2021/05/16 10:39:56;;;;;;;6.07;5.67;;;21.20;93.60;;;;;;5101532;28;20205;-76
2021/05/16 10:42:30;;;;;;;6.63;6.03;;;21.00;94.80;;;;;;5091855;28;20221;-76
2021/05/16 10:45:09;;;;;;;5.80;5.40;;;20.80;94.60;;;;;;5084620;28;20291;-75
2021/05/16 10:47:53;;;;;;;7.20;5.67;;;20.70;94.90;;;;;;5103497;28;20210;-76
2021/05/16 10:50:35;;;;;;;6.03;5.60;;;20.50;95.30;;;;;;5081518;28;20324;-76
2021/05/16 10:53:04;;;;;;;6.23;5.63;;;20.80;95.10;;;;;;5084201;28;20225;-76
2021/05/16 10:55:32;;;;;;;6.30;5.70;;;21.20;94.70;;;;;;5088875;28;20197;-76
2021/05/16 10:57:59;;;;;;;7.50;5.70;;;21.20;93.90;;;;;;5101680;28;20204;-76
2021/05/16 11:00:26;;;;;;;6.43;5.90;;;21.30;94.00;;;;;;5091416;28;20542;-76
2021/05/16 11:03:01;;;;;;;5.87;5.37;;;21.60;93.40;;;;;;5092191;28;20216;-76
2021/05/16 11:05:54;;;;;;;5.40;5.00;;;21.70;92.60;;;;;;5089006;28;20219;-75
2021/05/16 11:08:57;;;;;;;5.97;5.47;;;21.90;91.40;;;;;;5071519;28;20214;-78
2021/05/16 11:11:30;;;;;;;6.13;5.53;;;22.10;92.00;;;;;;5059451;28;20202;-77
2021/05/16 11:13:56;;;;;;;5.80;5.40;;;22.10;91.50;;;;;;5086242;28;20198;-77
2021/05/16 11:16:23;;;;;;;6.00;5.50;;;21.90;90.80;;;;;;5083648;28;20638;-77
2021/05/16 11:18:49;;;;;;;5.80;5.30;;;21.90;90.60;;;;;;5097698;28;20210;-77
2021/05/16 11:21:15;;;;;;;5.87;5.37;;;21.70;91.40;;;;;;5099764;28;20194;-77
2021/05/16 11:23:44;;;;;;;6.40;5.90;;;21.70;93.00;;;;;;5088850;28;20256;-77
2021/05/16 11:26:13;;;;;;;5.80;5.30;;;21.40;92.40;;;;;;5087992;28;20202;-77
2021/05/16 11:28:45;;;;;;;5.20;4.80;;;21.20;92.50;;;;;;5089543;28;20195;-77
2021/05/16 11:31:13;;;;;;;5.20;4.80;;;21.40;93.30;;;;;;5097769;28;20213;-77
2021/05/16 11:33:41;;;;;;;4.93;4.53;;;21.40;92.60;;;;;;5091206;28;20206;-78
2021/05/16 11:36:09;;;;;;;5.43;5.03;;;21.40;93.60;;;;;;5078478;28;20204;-76
2021/05/16 11:38:38;;;;;;;5.20;4.70;;;21.60;92.70;;;;;;5088907;28;20198;-78
2021/05/16 11:41:04;;;;;;;5.60;5.10;;;21.70;92.30;;;;;;5073503;28;20293;-77
2021/05/16 11:43:33;;;;;;;5.57;5.07;;;21.70;92.80;;;;;;5077765;28;20229;-77
2021/05/16 11:46:02;;;;;;;5.30;4.90;;;21.40;93.20;;;;;;5074028;28;20197;-77
2021/05/16 11:48:30;;;;;;;5.33;4.93;;;21.50;93.30;;;;;;5091661;28;20212;-77
2021/05/16 11:51:04;;;;;;;5.00;4.70;;;21.60;92.40;;;;;;5085527;28;20221;-77
2021/05/16 11:53:30;;;;;;;6.13;5.63;;;21.70;92.20;;;;;;5086333;28;20594;-76
2021/05/16 11:56:00;;;;;;;5.90;5.37;;;21.70;92.10;;;;;;5098000;28;20205;-75
2021/05/16 11:58:27;;;;;;;5.47;5.00;;;21.70;92.10;;;;;;5083423;28;20197;-76
2021/05/16 12:00:54;;;;;;;5.13;4.70;;;21.70;91.00;;;;;;5085190;28;20259;-75
2021/05/16 12:03:21;;;;;;;5.47;4.93;;;21.50;91.60;;;;;;5092218;28;20589;-75
2021/05/16 12:05:47;;;;;;;5.93;5.00;;;21.50;90.40;;;;;;5100052;28;20202;-74
2021/05/16 12:08:15;;;;;;;8.23;5.87;;;21.60;91.30;;;;;;5086671;28;20194;-75
2021/05/16 12:10:41;;;;;;;6.80;6.10;;;21.60;91.20;;;;;;5086878;28;20224;-75
2021/05/16 12:13:22;;;;;;;6.87;5.90;;;21.60;91.20;;;;;;5088646;28;20220;-75
2021/05/16 12:15:49;;;;;;;8.20;5.80;;;21.60;91.40;;;;;;5098368;28;20198;-75
2021/05/16 12:18:24;;;;;;;5.20;4.80;;;21.50;91.30;;;;;;5105859;28;20545;-76
2021/05/16 12:21:01;;;;;;;5.40;4.93;;;21.60;91.70;;;;;;5083524;28;20190;-76
2021/05/16 12:23:28;;;;;;;5.27;4.87;;;21.60;91.50;;;;;;5078485;28;20275;-76
2021/05/16 12:25:55;;;;;;;5.10;4.80;;;21.50;90.90;;;;;;5082018;28;20205;-76
2021/05/16 12:28:22;;;;;;;4.80;4.50;;;21.40;91.20;;;;;;5080722;28;20668;-76
2021/05/16 12:30:49;;;;;;;5.03;4.43;;;21.30;91.60;;;;;;5100063;28;20230;-76
2021/05/16 12:33:16;;;;;;;4.77;4.47;;;21.30;91.40;;;;;;5101171;28;20249;-76
2021/05/16 12:35:45;;;;;;;4.63;4.33;;;21.20;91.40;;;;;;5084464;28;20205;-77
2021/05/16 12:38:12;;;;;;;5.00;4.70;;;21.10;92.00;;;;;;5072693;28;20202;-76
2021/05/16 12:40:39;;;;;;;5.20;4.80;;;21.00;92.50;;;;;;5085191;28;20251;-76
2021/05/16 12:43:06;;;;;;;5.80;4.70;;;20.90;92.70;;;;;;5088938;28;20262;-76
2021/05/16 12:45:33;;;;;;;5.40;5.00;;;20.80;93.20;;;;;;5080649;28;20202;-76
2021/05/16 12:48:03;;;;;;;5.50;5.00;;;20.70;93.30;;;;;;5079065;28;20209;-76
2021/05/16 12:50:32;;;;;;;5.73;4.73;;;20.60;92.70;;;;;;5094464;28;20217;-76
2021/05/16 12:53:26;;;;;;;5.10;4.70;;;20.60;92.70;;;;;;5075090;28;20590;-76